Time;durP1;ratioP1;P1;durP2;ratioP2;P2;SDS_P1;SDS_P2;PMS_P1;PMS_P2;Temp;Humidity;BMP_temperature;BMP_pressure;BME280_temperature;BME280_humidity;BME280_pressure;Samples;Min_cycle;Max_cycle;Signal;HPM_P1;HPM_P2
2022/12/04 00:00:15;;;;;;;41.35;33.42;;;;;;;7.47;96.72;98046.25;5091906;28;20390;-46
2022/12/04 00:02:41;;;;;;;33.70;22.08;;;;;;;7.69;96.96;98048.75;5090618;28;20064;-46
2022/12/04 00:05:08;;;;;;;32.30;21.70;;;;;;;7.90;96.52;98050.38;5090619;28;20497;-46
2022/12/04 00:07:34;;;;;;;56.05;49.38;;;;;;;8.03;95.82;98060.03;5090644;28;20118;-46
2022/12/04 00:10:00;;;;;;;34.10;22.50;;;;;;;8.12;94.76;98051.81;5090587;28;20464;-46
2022/12/04 00:12:25;;;;;;;36.13;22.88;;;;;;;8.13;94.12;98044.75;5092139;28;20101;-46
2022/12/04 00:14:51;;;;;;;30.25;21.15;;;;;;;8.18;94.55;98032.69;5091833;28;20107;-46
2022/12/04 00:17:16;;;;;;;31.73;21.48;;;;;;;8.28;94.61;98041.97;5091761;28;20024;-46
2022/12/04 00:19:42;;;;;;;29.05;21.33;;;;;;;8.30;93.85;98045.97;5091718;28;20044;-46
2022/12/04 00:22:07;;;;;;;27.73;21.38;;;;;;;8.17;92.57;98040.75;5091773;28;20051;-46
2022/12/04 00:24:33;;;;;;;28.45;21.20;;;;;;;7.92;92.99;98035.31;5090423;28;20118;-46
2022/12/04 00:26:59;;;;;;;39.38;34.28;;;;;;;7.91;93.87;98041.53;5091747;28;20027;-46
2022/12/04 00:29:25;;;;;;;33.50;23.23;;;;;;;7.53;91.68;98047.28;5090388;28;20032;-47
2022/12/04 00:31:51;;;;;;;31.38;23.75;;;;;;;7.23;92.47;98042.34;5091719;28;20024;-47
2022/12/04 00:34:16;;;;;;;30.20;22.77;;;;;;;6.97;92.70;98046.44;5090336;28;20119;-46
2022/12/04 00:36:42;;;;;;;31.13;21.67;;;;;;;6.88;93.13;98046.78;5091686;28;20016;-47
2022/12/04 00:39:08;;;;;;;32.45;21.45;;;;;;;6.91;94.08;98049.03;5091629;28;20028;-47
2022/12/04 00:41:33;;;;;;;29.92;20.85;;;;;;;7.04;95.24;98048.28;5091655;28;20386;-47
2022/12/04 00:44:00;;;;;;;29.38;20.63;;;;;;;7.16;95.39;98044.13;5091490;28;20016;-47
2022/12/04 00:46:26;;;;;;;32.05;21.02;;;;;;;7.33;95.71;98036.78;5090272;28;20027;-46
2022/12/04 00:48:51;;;;;;;27.42;19.02;;;;;;;7.42;95.33;98027.75;5090189;28;20040;-46
2022/12/04 00:51:22;;;;;;;27.88;19.50;;;;;;;7.58;95.27;98026.59;5090211;28;20039;-47
2022/12/04 00:53:49;;;;;;;27.38;19.60;;;;;;;7.69;94.34;98022.63;5090259;28;20039;-47
2022/12/04 00:56:24;;;;;;;34.95;20.98;;;;;;;7.49;93.20;98017.34;5093475;28;20026;-46
2022/12/04 00:58:55;;;;;;;30.63;21.07;;;;;;;7.30;93.16;98017.06;5094200;28;20035;-47
2022/12/04 01:01:22;;;;;;;31.20;22.85;;;;;;;7.29;94.08;98014.66;5094052;28;20988;-47
2022/12/04 01:03:48;;;;;;;28.25;20.63;;;;;;;7.37;94.69;98022.31;5093909;28;20405;-47
2022/12/04 01:06:31;;;;;;;37.95;24.08;;;;;;;7.29;94.27;98027.72;5093912;28;20023;-46
2022/12/04 01:08:58;;;;;;;29.58;20.38;;;;;;;7.18;94.55;98026.47;5093959;28;20371;-47
2022/12/04 01:11:26;;;;;;;28.60;19.45;;;;;;;7.14;94.70;98036.50;5093784;28;20486;-47
2022/12/04 01:13:52;;;;;;;35.42;22.80;;;;;;;7.14;94.85;98027.84;5093884;28;20636;-47
2022/12/04 01:16:23;;;;;;;32.03;21.80;;;;;;;7.14;94.97;98038.28;5095135;28;20099;-47
2022/12/04 01:18:49;;;;;;;27.58;19.92;;;;;;;7.07;95.05;98050.50;5094817;28;20040;-47
2022/12/04 01:21:15;;;;;;;31.42;21.42;;;;;;;7.08;95.29;98054.72;5094984;28;20031;-46
2022/12/04 01:23:41;;;;;;;30.77;20.17;;;;;;;7.14;95.65;98049.53;5093557;28;20034;-46
2022/12/04 01:26:07;;;;;;;28.70;19.70;;;;;;;7.20;95.26;98047.94;5093514;28;20502;-47
2022/12/04 01:28:33;;;;;;;30.27;22.55;;;;;;;7.13;94.89;98028.84;5093540;28;20378;-47
2022/12/04 01:31:04;;;;;;;32.38;23.10;;;;;;;7.26;95.77;98026.28;5094759;28;20026;-46
2022/12/04 01:33:31;;;;;;;29.35;21.85;;;;;;;7.36;96.50;98038.97;5094722;28;20103;-47
2022/12/04 01:35:58;;;;;;;31.27;20.20;;;;;;;7.41;96.19;98028.75;5093316;28;20028;-47
2022/12/04 01:38:24;;;;;;;28.30;20.50;;;;;;;7.39;96.06;98028.94;5093295;28;20052;-47
2022/12/04 01:40:50;;;;;;;30.50;20.73;;;;;;;7.33;95.38;98023.72;5094592;28;20386;-47
2022/12/04 01:43:17;;;;;;;28.13;20.15;;;;;;;7.42;96.45;98022.53;5093209;28;20098;-47
2022/12/04 01:45:44;;;;;;;27.27;20.75;;;;;;;7.40;95.75;98022.75;5094484;28;20050;-47
2022/12/04 01:48:23;;;;;;;32.78;23.17;;;;;;;7.33;95.32;98026.34;5093161;28;20075;-46
2022/12/04 01:50:54;;;;;;;28.60;20.08;;;;;;;7.33;95.65;98042.78;5093141;28;20093;-47
2022/12/04 01:53:20;;;;;;;29.90;19.90;;;;;;;7.37;95.35;98036.19;5094435;28;20501;-47
2022/12/04 01:55:47;;;;;;;29.98;21.15;;;;;;;7.38;95.74;98029.97;5094268;28;20078;-47
2022/12/04 01:58:14;;;;;;;28.48;20.50;;;;;;;7.48;95.24;98029.56;5092936;28;20034;-47
2022/12/04 02:00:40;;;;;;;27.65;20.27;;;;;;;7.51;94.68;98031.00;5094207;28;20024;-47
2022/12/04 02:03:06;;;;;;;26.88;18.77;;;;;;;7.38;94.00;98029.16;5092762;28;20027;-47
2022/12/04 02:05:31;;;;;;;34.08;22.27;;;;;;;7.18;93.67;98029.91;5075956;28;20035;-47
2022/12/04 02:08:00;;;;;;;27.80;19.98;;;;;;;7.08;94.18;98042.47;5092549;28;20023;-47
2022/12/04 02:10:58;;;;;;;28.98;18.55;;;;;;;7.02;94.20;98039.84;5094018;28;20044;-47
2022/12/04 02:13:40;;;;;;;32.03;19.33;;;;;;;7.04;94.45;98041.25;5092751;28;20063;-47
2022/12/04 02:16:31;;;;;;;28.27;19.35;;;;;;;7.13;94.32;98034.06;5092738;28;20044;-47
2022/12/04 02:19:14;;;;;;;29.33;19.20;;;;;;;7.22;93.95;98024.28;5092511;28;20044;-46
2022/12/04 02:21:42;;;;;;;27.92;19.45;;;;;;;7.26;94.03;98018.47;5092598;28;20044;-47
2022/12/04 02:24:42;;;;;;;29.55;21.58;;;;;;;7.25;94.00;98013.47;5093729;28;20035;-47
2022/12/04 02:27:23;;;;;;;28.20;20.38;;;;;;;7.22;94.64;98017.25;5093822;28;20077;-47
2022/12/04 02:29:58;;;;;;;27.17;20.75;;;;;;;7.11;94.52;98015.19;5092456;28;20032;-47
2022/12/04 02:32:37;;;;;;;28.45;20.88;;;;;;;7.12;95.50;98001.97;5092380;28;20028;-47
2022/12/04 02:35:26;;;;;;;30.63;20.65;;;;;;;7.22;95.15;98006.81;5092268;28;20028;-47
2022/12/04 02:38:03;;;;;;;25.00;19.63;;;;;;;7.23;95.75;98002.41;5092213;28;20409;-47
2022/12/04 02:41:07;;;;;;;27.45;19.42;;;;;;;7.18;94.99;98042.13;5092171;28;20508;-47
2022/12/04 02:43:38;;;;;;;31.27;20.50;;;;;;;7.00;94.18;98042.63;5030908;28;20041;-47
2022/12/04 02:46:13;;;;;;;29.60;21.02;;;;;;;6.88;94.72;98036.34;5014365;28;20037;-47
2022/12/04 02:48:42;;;;;;;35.45;24.88;;;;;;;6.97;94.85;98051.66;5030956;28;20041;-47
2022/12/04 02:51:12;;;;;;;31.15;25.08;;;;;;;6.95;93.90;98058.88;5014195;28;20022;-47
2022/12/04 02:53:44;;;;;;;37.40;26.70;;;;;;;6.97;94.26;98059.47;5030807;28;20082;-47
2022/12/04 02:56:21;;;;;;;31.95;22.88;;;;;;;7.00;94.32;98059.09;5030884;28;20040;-48
2022/12/04 02:58:54;;;;;;;31.17;21.42;;;;;;;7.05;94.86;98070.78;5014252;28;20128;-48
2022/12/04 03:01:27;;;;;;;35.20;22.75;;;;;;;7.27;95.13;98072.28;5030778;28;20103;-48
2022/12/04 03:04:01;;;;;;;31.38;20.85;;;;;;;7.59;95.10;98075.22;5013980;28;20451;-48
2022/12/04 03:06:31;;;;;;;36.92;19.08;;;;;;;7.93;94.93;98078.72;5030642;28;20037;-47
2022/12/04 03:09:08;;;;;;;30.58;20.42;;;;;;;8.14;93.39;98085.59;5013934;28;20065;-48
2022/12/04 03:11:37;;;;;;;27.63;19.30;;;;;;;8.18;91.88;98092.81;4997588;28;20033;-48
2022/12/04 03:14:23;;;;;;;28.52;20.60;;;;;;;8.16;90.66;98086.19;5030424;28;20091;-48
2022/12/04 03:16:54;;;;;;;26.98;18.60;;;;;;;8.02;90.61;98082.75;5030437;28;20029;-48
2022/12/04 03:19:27;;;;;;;30.98;20.23;;;;;;;8.03;90.74;98084.38;5049107;28;20448;-48
2022/12/04 03:22:02;;;;;;;27.98;18.35;;;;;;;8.21;91.03;98081.19;5091321;28;20034;-48
2022/12/04 03:24:32;;;;;;;25.10;18.92;;;;;;;8.44;91.42;98099.13;5091328;28;20050;-48
2022/12/04 03:27:11;;;;;;;46.10;33.30;;;;;;;8.46;91.10;98097.09;5091243;28;20096;-48
2022/12/04 03:29:49;;;;;;;163.27;146.38;;;;;;;8.43;91.52;98091.47;5092557;28;20512;-48
2022/12/04 03:32:30;;;;;;;220.85;200.50;;;;;;;8.34;91.12;98090.84;5092508;28;20020;-48
2022/12/04 03:35:05;;;;;;;223.00;200.00;;;;;;;8.26;91.49;98085.81;5092472;28;20027;-48
2022/12/04 03:37:30;;;;;;;272.23;245.82;;;;;;;8.24;91.43;98086.00;5092526;28;20024;-48
2022/12/04 03:40:06;;;;;;;226.43;202.55;;;;;;;8.10;88.46;98087.00;5091045;28;20521;-48
2022/12/04 03:42:40;;;;;;;177.00;159.32;;;;;;;7.89;88.27;98080.13;5092220;28;20401;-48
2022/12/04 03:45:40;;;;;;;248.48;224.50;;;;;;;7.69;89.30;98086.09;5090995;28;20051;-48
2022/12/04 03:48:16;;;;;;;160.52;143.95;;;;;;;7.59;90.18;98083.06;5086577;28;20070;-48
2022/12/04 03:50:51;;;;;;;246.95;222.25;;;;;;;7.51;91.06;98075.41;5090841;28;20505;-48
2022/12/04 03:53:29;;;;;;;131.85;117.57;;;;;;;7.42;92.11;98066.91;5092265;28;20032;-47
2022/12/04 03:56:04;;;;;;;173.43;145.25;;;;;;;7.43;92.81;98065.13;5090810;28;20615;-48
2022/12/04 03:58:32;;;;;;;88.20;75.72;;;;;;;7.43;93.54;98065.91;5090824;28;20468;-48
2022/12/04 04:01:00;;;;;;;314.23;113.63;;;;;;;7.29;93.03;98061.66;5090752;28;20039;-48
2022/12/04 04:03:34;;;;;;;87.53;73.90;;;;;;;7.28;93.75;98060.03;5090656;28;20066;-48
2022/12/04 04:06:13;;;;;;;42.30;30.48;;;;;;;7.26;94.06;98064.63;5090770;28;20081;-48
2022/12/04 04:08:43;;;;;;;32.10;23.35;;;;;;;7.35;95.30;98058.25;5092066;28;20039;-48
2022/12/04 04:11:26;;;;;;;31.35;24.20;;;;;;;7.50;94.96;98055.50;5092037;28;20375;-48
2022/12/04 04:25:26;;;;;;;32.80;23.00;;;;;;;7.64;95.34;98045.91;5049244;28;20106;-48
2022/12/04 04:27:53;;;;;;;46.30;33.03;;;;;;;7.46;93.42;98043.84;5049335;28;20033;-48
2022/12/04 04:30:20;;;;;;;33.30;22.20;;;;;;;7.23;92.78;98052.78;5033096;28;20083;-47
2022/12/04 04:32:59;;;;;;;33.35;22.20;;;;;;;7.16;93.40;98044.94;5053316;28;20017;-48
2022/12/04 04:35:39;;;;;;;32.17;22.23;;;;;;;7.32;94.11;98048.19;5053389;28;20491;-48
2022/12/04 04:38:38;;;;;;;34.25;23.30;;;;;;;7.32;94.52;98054.22;5036615;28;20025;-48
2022/12/04 04:41:18;;;;;;;33.25;22.15;;;;;;;7.36;94.06;98052.84;5053253;28;20032;-48
2022/12/04 04:44:15;;;;;;;28.38;20.30;;;;;;;7.25;92.58;98056.00;5053202;28;20491;-48
2022/12/04 04:46:48;;;;;;;31.08;22.70;;;;;;;7.20;93.28;98063.59;5052874;28;20052;-48
2022/12/04 04:49:16;;;;;;;27.52;20.15;;;;;;;6.96;91.80;98055.28;5053011;28;20178;-48
2022/12/04 04:51:43;;;;;;;34.20;21.40;;;;;;;6.97;94.00;98058.69;5053035;28;20035;-48
2022/12/04 04:54:12;;;;;;;32.03;21.90;;;;;;;7.02;93.76;98064.13;5069591;28;20029;-48
2022/12/04 04:56:46;;;;;;;33.03;21.00;;;;;;;6.94;93.13;98064.28;5036185;28;20029;-48
2022/12/04 04:59:13;;;;;;;35.22;19.92;;;;;;;7.05;93.73;98068.16;5052926;28;20111;-48
2022/12/04 05:01:40;;;;;;;31.92;20.75;;;;;;;7.01;93.07;98054.69;5071847;28;20040;-48
2022/12/04 05:04:06;;;;;;;31.38;21.70;;;;;;;7.25;93.91;98055.22;5095261;28;20386;-48
2022/12/04 05:06:32;;;;;;;31.23;21.73;;;;;;;7.38;93.84;98058.69;5095288;28;20031;-48
2022/12/04 05:08:58;;;;;;;35.03;22.30;;;;;;;7.18;92.91;98065.59;5095250;28;20016;-48
2022/12/04 05:11:24;;;;;;;31.25;21.92;;;;;;;7.10;94.20;98068.38;5095158;28;20115;-48
2022/12/04 05:13:50;;;;;;;40.63;25.75;;;;;;;6.91;93.86;98065.47;5095138;28;20436;-48
2022/12/04 05:16:16;;;;;;;37.45;24.30;;;;;;;6.86;95.02;98064.44;5093775;28;20393;-48
2022/12/04 05:19:52;;;;;;;39.33;25.10;;;;;;;6.82;95.67;98071.03;5094748;28;20500;-47
2022/12/04 05:21:30;;;;;;;45.85;25.13;;;;;;;6.88;96.21;98072.88;5094842;28;20494;-48
2022/12/04 05:23:56;;;;;;;39.08;24.08;;;;;;;6.82;96.11;98074.44;5093579;28;20024;-47
2022/12/04 05:26:22;;;;;;;30.23;22.73;;;;;;;6.70;95.46;98070.75;5093820;28;20028;-48
2022/12/04 05:28:47;;;;;;;34.25;24.55;;;;;;;6.53;95.60;98065.81;5094903;28;20020;-48
2022/12/04 05:31:13;;;;;;;36.80;24.00;;;;;;;6.50;96.26;98070.59;5094735;28;20139;-48
2022/12/04 05:33:38;;;;;;;37.65;25.15;;;;;;;6.49;97.06;98076.81;5094719;28;20024;-48
2022/12/04 05:36:09;;;;;;;36.38;22.42;;;;;;;6.38;96.77;98072.94;5093455;28;20024;-48
2022/12/04 05:38:35;;;;;;;37.53;25.50;;;;;;;6.60;98.33;98077.13;5094675;28;20066;-48
2022/12/04 05:41:03;;;;;;;31.17;21.83;;;;;;;6.73;97.51;98076.38;5094008;28;20020;-47
2022/12/04 05:43:29;;;;;;;33.28;22.52;;;;;;;6.86;96.86;98074.84;5093159;28;20024;-48
2022/12/04 05:45:59;;;;;;;29.95;20.75;;;;;;;6.88;95.90;98063.25;5093216;28;20078;-48
2022/12/04 05:48:24;;;;;;;33.80;21.42;;;;;;;6.84;94.84;98066.41;5094532;28;20020;-47
2022/12/04 05:50:50;;;;;;;28.17;22.98;;;;;;;6.89;95.44;98066.66;5094404;28;20510;-48
2022/12/04 05:53:15;;;;;;;30.88;20.90;;;;;;;6.87;94.09;98066.84;5093104;28;20493;-48
2022/12/04 05:55:42;;;;;;;33.38;23.08;;;;;;;6.91;94.60;98062.84;5094365;28;20386;-48
2022/12/04 05:58:07;;;;;;;59.60;27.13;;;;;;;6.76;93.93;98059.53;5094355;28;20047;-48
2022/12/04 06:00:33;;;;;;;34.38;23.23;;;;;;;6.65;94.73;98058.28;5092869;28;20051;-48
2022/12/04 06:02:59;;;;;;;37.90;24.52;;;;;;;6.65;96.02;98060.88;5092833;28;20028;-48
2022/12/04 06:05:24;;;;;;;32.75;24.30;;;;;;;6.77;97.21;98055.97;5092757;28;20031;-48
2022/12/04 06:07:50;;;;;;;39.85;24.35;;;;;;;6.79;97.39;98052.16;5094107;28;20041;-48
2022/12/04 06:10:15;;;;;;;32.78;23.00;;;;;;;6.71;97.12;98054.91;5094027;28;20024;-48
2022/12/04 06:12:41;;;;;;;31.15;20.20;;;;;;;6.72;96.61;98060.94;5093971;28;20039;-48
2022/12/04 06:15:07;;;;;;;38.47;23.38;;;;;;;6.74;96.40;98053.72;5092604;28;20028;-48
2022/12/04 06:17:32;;;;;;;37.20;21.52;;;;;;;6.73;95.78;98050.31;5092597;28;20028;-48
2022/12/04 06:19:58;;;;;;;39.80;23.17;;;;;;;6.48;95.10;98041.31;5093889;28;20036;-48
2022/12/04 06:22:24;;;;;;;40.17;25.52;;;;;;;6.29;95.99;98058.41;5094027;28;20023;-48
2022/12/04 06:24:50;;;;;;;35.83;21.70;;;;;;;6.42;97.52;98068.13;5093672;28;20095;-47
2022/12/04 06:27:15;;;;;;;31.67;19.63;;;;;;;6.34;95.69;98080.31;5093684;28;20489;-47
2022/12/04 06:29:41;;;;;;;29.13;20.08;;;;;;;6.24;94.82;98060.75;5092384;28;20042;-48
2022/12/04 06:32:06;;;;;;;39.15;23.55;;;;;;;6.32;95.73;98058.84;5093630;28;20066;-47
2022/12/04 06:34:32;;;;;;;35.97;23.98;;;;;;;6.42;96.07;98047.28;5093570;28;20082;-47
2022/12/04 06:36:57;;;;;;;58.47;22.70;;;;;;;6.35;96.53;98055.06;5093549;28;20099;-47
2022/12/04 06:39:23;;;;;;;30.85;22.83;;;;;;;6.30;96.54;98058.25;5092171;28;20024;-47
2022/12/04 06:41:49;;;;;;;34.45;22.48;;;;;;;6.20;96.49;98055.94;5092111;28;20020;-47
2022/12/04 06:44:15;;;;;;;30.45;22.15;;;;;;;6.17;96.74;98051.09;5092031;28;20024;-47
2022/12/04 06:46:41;;;;;;;30.50;22.25;;;;;;;6.24;96.27;98056.38;5093352;28;20047;-47
2022/12/04 06:49:08;;;;;;;32.15;22.83;;;;;;;6.32;96.93;98055.44;5093352;28;20480;-47
2022/12/04 06:51:36;;;;;;;31.75;22.27;;;;;;;6.61;96.12;98051.84;5091949;28;20462;-47
2022/12/04 06:54:02;;;;;;;27.13;19.60;;;;;;;6.64;95.58;98058.47;5092339;28;20558;-47
2022/12/04 06:56:31;;;;;;;27.52;21.92;;;;;;;6.89;94.73;98054.41;5091813;28;20028;-47
2022/12/04 06:58:59;;;;;;;29.00;19.95;;;;;;;7.05;94.19;98057.72;5093115;28;20069;-47
2022/12/04 07:01:27;;;;;;;29.95;20.92;;;;;;;7.32;94.59;98067.25;5093043;28;20485;-47
2022/12/04 07:03:54;;;;;;;32.85;16.48;;;;;;;7.52;93.50;98067.34;5093175;28;20051;-47
2022/12/04 07:06:24;;;;;;;33.13;20.25;;;;;;;7.42;90.19;98071.34;5092945;28;20016;-47
2022/12/04 07:08:57;;;;;;;31.63;18.55;;;;;;;7.35;91.16;98079.94;5092919;28;20519;-47
2022/12/04 07:11:22;;;;;;;37.33;20.95;;;;;;;7.44;91.82;98077.16;5091572;28;20023;-47
2022/12/04 07:13:50;;;;;;;32.00;20.55;;;;;;;7.46;91.72;98085.59;5092842;28;20032;-47
2022/12/04 07:16:18;;;;;;;28.58;20.88;;;;;;;7.36;91.08;98091.19;5092788;28;20024;-47
2022/12/04 07:18:44;;;;;;;32.92;21.65;;;;;;;7.42;92.00;98087.00;5092425;28;20040;-47
2022/12/04 07:21:15;;;;;;;31.05;20.33;;;;;;;7.49;91.86;98086.03;5091503;28;20020;-47
2022/12/04 07:23:41;;;;;;;37.42;21.10;;;;;;;7.60;92.36;98087.25;5074379;28;20036;-47
2022/12/04 07:26:12;;;;;;;32.58;22.38;;;;;;;7.69;93.43;98083.47;5091264;28;20065;-47
2022/12/04 07:28:39;;;;;;;34.83;24.15;;;;;;;7.65;93.43;98081.47;5092543;28;20431;-46
2022/12/04 07:31:10;;;;;;;44.15;26.02;;;;;;;7.49;93.72;98077.41;5092472;28;20047;-46
2022/12/04 07:33:36;;;;;;;38.38;26.27;;;;;;;7.25;94.68;98061.22;5092545;28;20398;-45
2022/12/04 07:36:04;;;;;;;39.08;27.27;;;;;;;6.84;94.62;98050.78;5091089;28;20122;-45
2022/12/04 07:38:31;;;;;;;37.70;26.65;;;;;;;6.60;95.98;98053.66;5091081;28;20032;-45
2022/12/04 07:41:03;;;;;;;43.83;27.17;;;;;;;6.31;95.76;98062.44;5091044;28;20031;-45
2022/12/04 07:43:29;;;;;;;46.55;27.30;;;;;;;6.23;97.14;98069.59;5092464;28;20508;-45
2022/12/04 07:45:56;;;;;;;49.67;27.50;;;;;;;6.23;98.08;98061.78;5090948;28;20027;-45
2022/12/04 07:48:22;;;;;;;46.10;29.02;;;;;;;6.32;98.53;98060.66;5092278;28;20075;-45
2022/12/04 07:50:48;;;;;;;49.47;29.65;;;;;;;6.32;98.91;98078.91;5092494;28;20063;-46
2022/12/04 07:53:14;;;;;;;49.15;27.55;;;;;;;6.21;98.62;98072.38;5090872;28;20493;-45
2022/12/04 07:55:40;;;;;;;42.42;28.20;;;;;;;6.15;98.85;98075.72;5092117;28;20020;-45
2022/12/04 07:58:06;;;;;;;38.13;26.48;;;;;;;6.00;98.89;98081.03;5092166;28;20537;-45
2022/12/04 08:00:31;;;;;;;39.45;26.25;;;;;;;5.84;98.50;98087.22;5090870;28;20056;-46
2022/12/04 08:02:57;;;;;;;41.70;26.67;;;;;;;5.83;99.16;98085.59;5091980;28;20521;-46
2022/12/04 08:05:22;;;;;;;41.25;26.67;;;;;;;6.11;100.00;98084.91;5090459;28;20393;-46
2022/12/04 08:07:48;;;;;;;46.25;27.42;;;;;;;6.27;100.00;98089.88;5090637;28;20028;-46
2022/12/04 08:10:14;;;;;;;49.63;29.73;;;;;;;6.38;100.00;98084.16;5090658;28;20078;-46
2022/12/04 08:12:39;;;;;;;54.47;30.27;;;;;;;6.57;100.00;98090.50;5091979;28;20441;-45
2022/12/04 08:15:06;;;;;;;54.67;31.85;;;;;;;6.77;100.00;98084.63;5090505;28;20028;-46
2022/12/04 08:17:31;;;;;;;58.92;31.88;;;;;;;6.89;100.00;98075.28;5090633;28;20035;-45
2022/12/04 08:19:57;;;;;;;119.63;32.38;;;;;;;6.95;100.00;98077.13;5090414;28;20414;-46
2022/12/04 08:22:23;;;;;;;51.85;30.52;;;;;;;7.00;100.00;98069.53;5090467;28;20028;-45
2022/12/04 08:24:49;;;;;;;98.97;32.58;;;;;;;7.11;100.00;98075.22;5090431;28;20024;-45
2022/12/04 08:27:15;;;;;;;74.10;31.23;;;;;;;7.19;100.00;98078.47;5073688;28;20024;-45
2022/12/04 08:29:41;;;;;;;109.05;32.33;;;;;;;7.25;100.00;98079.50;5091759;28;20032;-46
2022/12/04 08:32:06;;;;;;;66.35;29.73;;;;;;;7.27;100.00;98077.50;5091710;28;20066;-45
2022/12/04 08:34:32;;;;;;;43.78;29.98;;;;;;;7.36;100.00;98078.97;5090389;28;20024;-46
2022/12/04 08:36:58;;;;;;;98.68;32.42;;;;;;;7.31;100.00;98070.09;5091693;28;20095;-45
2022/12/04 08:39:24;;;;;;;43.67;27.98;;;;;;;7.35;100.00;98063.47;5091733;28;20027;-46
2022/12/04 08:41:49;;;;;;;103.93;29.02;;;;;;;7.40;100.00;98067.13;5091631;28;20016;-45
2022/12/04 08:44:15;;;;;;;59.03;28.75;;;;;;;7.37;100.00;98077.16;5090258;28;20504;-46
2022/12/04 08:46:41;;;;;;;61.38;33.53;;;;;;;7.50;100.00;98086.81;5091598;28;20398;-45
2022/12/04 08:49:06;;;;;;;42.60;25.10;;;;;;;7.55;100.00;98084.44;5091570;28;20077;-45
2022/12/04 08:51:34;;;;;;;36.53;25.38;;;;;;;7.33;100.00;98086.38;5091591;28;20078;-46
2022/12/04 08:54:03;;;;;;;45.20;25.38;;;;;;;7.11;100.00;98091.66;5091498;28;20032;-45
2022/12/04 08:56:30;;;;;;;35.95;24.52;;;;;;;6.92;100.00;98092.34;5090498;28;20032;-45
2022/12/04 08:58:57;;;;;;;51.88;30.88;;;;;;;6.81;100.00;98083.25;5090169;28;20035;-46
2022/12/04 09:01:24;;;;;;;283.60;42.28;;;;;;;7.10;100.00;98081.41;5091459;28;20052;-46
2022/12/04 09:03:50;;;;;;;52.33;29.80;;;;;;;7.32;100.00;98075.09;5090534;28;20119;-46
2022/12/04 09:06:16;;;;;;;151.82;34.25;;;;;;;7.48;100.00;98099.28;5090432;28;20056;-46
2022/12/04 09:08:42;;;;;;;90.80;30.50;;;;;;;7.57;100.00;98103.34;5091434;28;20550;-45
2022/12/04 09:11:14;;;;;;;67.60;30.02;;;;;;;7.53;100.00;98102.91;5090030;28;20114;-45
2022/12/04 09:13:40;;;;;;;145.10;36.67;;;;;;;7.65;100.00;98092.72;5091324;28;20020;-46
2022/12/04 09:16:09;;;;;;;49.67;28.77;;;;;;;7.70;100.00;98092.13;5090160;28;20049;-46
2022/12/04 09:18:36;;;;;;;44.17;26.98;;;;;;;7.52;100.00;98083.00;5093684;28;20307;-46
2022/12/04 09:21:04;;;;;;;140.40;33.38;;;;;;;7.21;100.00;98088.72;5093731;28;20525;-45
2022/12/04 09:23:30;;;;;;;60.65;34.35;;;;;;;7.24;100.00;98090.91;5094927;28;20036;-45
2022/12/04 09:25:55;;;;;;;140.93;58.05;;;;;;;7.26;100.00;98095.97;5076665;28;20031;-46
2022/12/04 09:28:21;;;;;;;178.75;75.20;;;;;;;7.33;100.00;98104.63;5093508;28;20028;-46
2022/12/04 09:30:57;;;;;;;444.83;76.43;;;;;;;7.65;100.00;98105.78;5094773;28;20032;-46
2022/12/04 09:33:22;;;;;;;;;;;;;;;7.68;100.00;98105.38;5093904;28;20086;-46
2022/12/04 09:35:48;;;;;;;183.07;39.78;;;;;;;7.64;100.00;98109.38;5094743;28;20393;-46
2022/12/04 09:38:13;;;;;;;201.55;40.67;;;;;;;7.73;100.00;98108.22;5094939;28;20040;-46
2022/12/04 09:40:54;;;;;;;428.20;59.22;;;;;;;7.92;100.00;98104.03;5094673;28;20857;-46
2022/12/04 09:43:31;;;;;;;435.10;55.92;;;;;;;8.23;100.00;98107.94;5094654;28;20119;-46
2022/12/04 09:46:03;;;;;;;306.25;46.75;;;;;;;8.27;100.00;98113.53;5094637;28;20125;-46
2022/12/04 09:48:36;;;;;;;126.53;35.58;;;;;;;8.04;100.00;98121.75;5094571;28;20031;-46
2022/12/04 09:51:04;;;;;;;57.88;30.98;;;;;;;7.69;100.00;98130.50;5094497;28;20036;-46
2022/12/04 09:54:04;;;;;;;1330.47;109.22;;;;;;;7.67;100.00;98129.09;5094431;28;20028;-46
2022/12/04 09:56:31;;;;;;;61.47;30.35;;;;;;;7.74;100.00;98135.91;5082969;28;20413;-46
2022/12/04 09:59:10;;;;;;;246.38;42.53;;;;;;;7.61;100.00;98125.44;5094318;28;20024;-46
2022/12/04 10:01:42;;;;;;;117.85;35.65;;;;;;;7.63;100.00;98128.66;5092933;28;20063;-45
2022/12/04 10:04:10;;;;;;;273.63;46.55;;;;;;;7.69;100.00;98127.88;5092872;28;20447;-46
2022/12/04 10:07:08;;;;;;;138.43;39.28;;;;;;;7.73;100.00;98120.47;5092791;28;20401;-46
2022/12/04 10:09:46;;;;;;;82.97;34.95;;;;;;;7.77;100.00;98119.88;5092808;28;20436;-46
2022/12/04 10:12:25;;;;;;;339.05;47.63;;;;;;;7.78;100.00;98126.69;5094055;28;20032;-46
2022/12/04 10:15:09;;;;;;;312.20;106.03;;;;;;;7.86;100.00;98114.47;5094078;28;20111;-46
2022/12/04 10:17:54;;;;;;;154.82;57.88;;;;;;;7.88;100.00;98099.41;5093769;28;20032;-47
2022/12/04 10:20:49;;;;;;;82.38;49.50;;;;;;;8.04;100.00;98101.66;5092878;28;20055;-46
2022/12/04 10:23:52;;;;;;;218.60;46.38;;;;;;;7.92;100.00;98083.13;5093744;28;20119;-46
2022/12/04 10:26:24;;;;;;;138.13;38.53;;;;;;;8.03;100.00;98097.44;5093730;28;20030;-46
2022/12/04 10:29:01;;;;;;;83.75;32.60;;;;;;;8.14;100.00;98090.81;5092377;28;20036;-46
2022/12/04 10:31:28;;;;;;;49.97;31.67;;;;;;;8.17;100.00;98093.84;5093661;28;20082;-46
2022/12/04 10:34:06;;;;;;;59.85;32.70;;;;;;;8.19;100.00;98081.38;5075727;28;20474;-46
2022/12/04 10:36:34;;;;;;;51.35;31.83;;;;;;;8.33;100.00;98068.28;5093580;28;20466;-46
2022/12/04 10:39:06;;;;;;;46.15;29.85;;;;;;;8.46;100.00;98057.88;5093555;28;20407;-46
2022/12/04 10:41:52;;;;;;;45.65;28.58;;;;;;;8.64;100.00;98061.69;5092155;28;20463;-46
2022/12/04 10:44:19;;;;;;;43.75;29.00;;;;;;;8.75;100.00;98058.44;5093476;28;20031;-46
2022/12/04 10:46:45;;;;;;;36.35;25.23;;;;;;;8.94;100.00;98052.38;5093386;28;20111;-46
2022/12/04 10:49:18;;;;;;;33.55;23.90;;;;;;;8.92;100.00;98048.38;5093353;28;20103;-45
2022/12/04 10:51:44;;;;;;;34.65;23.98;;;;;;;8.82;100.00;98059.25;5093281;28;20016;-45
2022/12/04 10:54:20;;;;;;;32.83;24.60;;;;;;;8.83;100.00;98062.66;5093196;28;20751;-46
2022/12/04 10:56:51;;;;;;;38.95;26.45;;;;;;;8.70;100.00;98064.28;5093156;28;20102;-45
2022/12/04 10:59:16;;;;;;;30.85;24.13;;;;;;;8.85;100.00;98065.88;5091795;28;20028;-46
2022/12/04 11:01:43;;;;;;;32.60;23.55;;;;;;;8.86;100.00;98063.06;5091898;28;20028;-46
2022/12/04 11:04:21;;;;;;;27.67;21.83;;;;;;;8.77;100.00;98064.28;5091666;28;20027;-46
2022/12/04 11:06:49;;;;;;;33.28;25.08;;;;;;;8.80;100.00;98066.50;5092971;28;20028;-45
2022/12/04 11:09:24;;;;;;;32.03;22.10;;;;;;;8.81;100.00;98062.84;5092903;28;20024;-45
2022/12/04 11:11:51;;;;;;;33.55;23.88;;;;;;;8.95;100.00;98054.00;5092934;28;20103;-46
2022/12/04 11:14:20;;;;;;;30.35;23.08;;;;;;;9.02;100.00;98048.72;5091498;28;20035;-46
2022/12/04 11:17:05;;;;;;;26.65;21.88;;;;;;;9.13;100.00;98049.91;5091479;28;20020;-46
2022/12/04 11:19:35;;;;;;;33.50;24.15;;;;;;;8.99;100.00;98038.66;5074412;28;20093;-46
2022/12/04 11:22:17;;;;;;;31.05;22.20;;;;;;;8.92;100.00;98038.69;5092633;28;20152;-46
2022/12/04 11:24:51;;;;;;;29.52;22.95;;;;;;;8.83;100.00;98033.88;5091239;28;20019;-46
2022/12/04 11:27:28;;;;;;;32.42;21.85;;;;;;;8.87;100.00;98033.25;5091465;28;20104;-46
2022/12/04 11:29:55;;;;;;;27.73;21.55;;;;;;;8.71;99.93;98034.53;5092940;28;20034;-46
2022/12/04 11:32:27;;;;;;;31.80;22.10;;;;;;;8.64;99.41;98032.91;5092472;28;20036;-46
2022/12/04 11:34:56;;;;;;;36.38;24.02;;;;;;;8.80;100.00;98035.91;5092888;28;20032;-46
2022/12/04 11:37:29;;;;;;;30.40;22.65;;;;;;;8.95;100.00;98030.44;5092424;28;20028;-46
2022/12/04 11:39:55;;;;;;;30.25;22.90;;;;;;;8.87;100.00;98029.84;5092043;28;20024;-46
2022/12/04 11:42:27;;;;;;;37.22;22.42;;;;;;;8.75;98.82;98027.03;5091051;28;20078;-46
2022/12/04 11:44:59;;;;;;;32.83;22.38;;;;;;;8.69;98.72;98020.03;5090842;28;20510;-46
2022/12/04 11:47:32;;;;;;;31.38;23.90;;;;;;;8.79;99.97;98025.63;5091019;28;20058;-46